sensor_id;sensor_type;location;lat;lon;timestamp;pressure;altitude;pressure_sealevel;temperature;humidity
6851;BME280;3464;42.728;23.296;2022-07-29T00:01:59;95422.57;;;21.89;100.00
6851;BME280;3464;42.728;23.296;2022-07-29T00:04:48;95433.40;;;21.71;100.00
6851;BME280;3464;42.728;23.296;2022-07-29T00:07:38;95445.17;;;21.63;100.00
6851;BME280;3464;42.728;23.296;2022-07-29T00:10:27;95440.61;;;21.60;100.00
6851;BME280;3464;42.728;23.296;2022-07-29T00:13:17;95441.52;;;21.71;100.00
6851;BME280;3464;42.728;23.296;2022-07-29T00:16:07;95444.88;;;21.59;100.00
6851;BME280;3464;42.728;23.296;2022-07-29T00:18:56;95452.20;;;21.15;100.00
6851;BME280;3464;42.728;23.296;2022-07-29T00:21:47;95451.75;;;20.85;100.00
6851;BME280;3464;42.728;23.296;2022-07-29T00:24:35;95455.84;;;20.78;100.00
6851;BME280;3464;42.728;23.296;2022-07-29T00:27:24;95448.21;;;20.91;100.00
6851;BME280;3464;42.728;23.296;2022-07-29T00:30:13;95443.91;;;20.77;100.00
6851;BME280;3464;42.728;23.296;2022-07-29T00:33:02;95445.88;;;20.37;100.00
6851;BME280;3464;42.728;23.296;2022-07-29T00:35:52;95454.68;;;20.25;100.00
6851;BME280;3464;42.728;23.296;2022-07-29T00:38:41;95466.77;;;20.19;100.00
6851;BME280;3464;42.728;23.296;2022-07-29T00:41:31;95464.52;;;19.89;100.00
6851;BME280;3464;42.728;23.296;2022-07-29T00:44:21;95456.45;;;20.05;100.00
6851;BME280;3464;42.728;23.296;2022-07-29T00:47:10;95451.88;;;20.19;100.00
6851;BME280;3464;42.728;23.296;2022-07-29T00:50:00;95452.05;;;20.11;100.00
6851;BME280;3464;42.728;23.296;2022-07-29T00:52:49;95451.23;;;20.09;100.00
6851;BME280;3464;42.728;23.296;2022-07-29T00:55:38;95454.33;;;20.23;100.00
6851;BME280;3464;42.728;23.296;2022-07-29T00:58:28;95452.01;;;20.30;100.00
6851;BME280;3464;42.728;23.296;2022-07-29T01:01:18;95445.81;;;20.23;100.00
6851;BME280;3464;42.728;23.296;2022-07-29T01:04:06;95443.05;;;20.46;100.00
6851;BME280;3464;42.728;23.296;2022-07-29T01:06:57;95444.72;;;20.48;100.00
6851;BME280;3464;42.728;23.296;2022-07-29T01:09:47;95437.77;;;20.52;100.00
6851;BME280;3464;42.728;23.296;2022-07-29T01:12:38;95435.31;;;20.33;100.00
6851;BME280;3464;42.728;23.296;2022-07-29T01:15:27;95429.38;;;20.48;100.00
6851;BME280;3464;42.728;23.296;2022-07-29T01:18:22;95423.71;;;20.52;100.00
6851;BME280;3464;42.728;23.296;2022-07-29T01:21:23;95423.97;;;20.58;100.00
6851;BME280;3464;42.728;23.296;2022-07-29T01:24:34;95423.42;;;20.63;100.00
6851;BME280;3464;42.728;23.296;2022-07-29T01:27:30;95417.45;;;20.62;100.00
6851;BME280;3464;42.728;23.296;2022-07-29T01:30:14;95413.70;;;20.75;100.00
6851;BME280;3464;42.728;23.296;2022-07-29T01:33:06;95417.92;;;20.61;100.00
6851;BME280;3464;42.728;23.296;2022-07-29T01:35:54;95412.69;;;20.65;100.00
6851;BME280;3464;42.728;23.296;2022-07-29T01:38:46;95413.09;;;20.51;100.00
6851;BME280;3464;42.728;23.296;2022-07-29T01:41:36;95408.05;;;20.48;100.00
6851;BME280;3464;42.728;23.296;2022-07-29T01:44:30;95414.25;;;20.55;100.00
6851;BME280;3464;42.728;23.296;2022-07-29T01:47:19;95415.32;;;20.63;100.00
6851;BME280;3464;42.728;23.296;2022-07-29T01:50:08;95415.79;;;20.61;100.00
6851;BME280;3464;42.728;23.296;2022-07-29T01:53:05;95414.94;;;20.61;100.00
6851;BME280;3464;42.728;23.296;2022-07-29T01:55:53;95408.91;;;20.47;100.00
6851;BME280;3464;42.728;23.296;2022-07-29T01:58:42;95417.88;;;20.32;100.00
6851;BME280;3464;42.728;23.296;2022-07-29T02:01:32;95413.43;;;20.23;100.00
6851;BME280;3464;42.728;23.296;2022-07-29T02:04:22;95399.84;;;20.21;100.00
6851;BME280;3464;42.728;23.296;2022-07-29T02:07:12;95408.53;;;20.46;100.00
6851;BME280;3464;42.728;23.296;2022-07-29T02:10:00;95401.58;;;20.51;100.00
6851;BME280;3464;42.728;23.296;2022-07-29T02:12:49;95410.15;;;20.50;100.00
6851;BME280;3464;42.728;23.296;2022-07-29T02:15:38;95401.31;;;20.15;100.00
6851;BME280;3464;42.728;23.296;2022-07-29T02:18:27;95406.42;;;20.14;100.00
6851;BME280;3464;42.728;23.296;2022-07-29T02:21:19;95397.40;;;19.99;100.00
6851;BME280;3464;42.728;23.296;2022-07-29T02:24:06;95397.30;;;20.37;100.00
6851;BME280;3464;42.728;23.296;2022-07-29T02:26:55;95396.47;;;20.51;100.00
6851;BME280;3464;42.728;23.296;2022-07-29T02:29:45;95393.19;;;20.62;100.00
6851;BME280;3464;42.728;23.296;2022-07-29T02:32:35;95386.68;;;20.65;100.00
6851;BME280;3464;42.728;23.296;2022-07-29T02:35:24;95383.78;;;20.62;100.00
6851;BME280;3464;42.728;23.296;2022-07-29T02:38:14;95380.83;;;20.61;100.00
6851;BME280;3464;42.728;23.296;2022-07-29T02:41:11;95387.47;;;20.53;100.00
6851;BME280;3464;42.728;23.296;2022-07-29T02:44:05;95388.16;;;20.59;100.00
6851;BME280;3464;42.728;23.296;2022-07-29T02:47:04;95382.50;;;20.62;100.00
6851;BME280;3464;42.728;23.296;2022-07-29T02:50:09;95378.34;;;20.28;100.00
6851;BME280;3464;42.728;23.296;2022-07-29T02:53:00;95383.44;;;20.29;100.00
6851;BME280;3464;42.728;23.296;2022-07-29T02:55:49;95389.51;;;20.41;100.00
6851;BME280;3464;42.728;23.296;2022-07-29T02:58:40;95381.91;;;20.05;100.00
6851;BME280;3464;42.728;23.296;2022-07-29T03:01:30;95386.86;;;20.28;100.00
6851;BME280;3464;42.728;23.296;2022-07-29T03:04:17;95382.28;;;20.25;100.00
6851;BME280;3464;42.728;23.296;2022-07-29T03:07:06;95387.03;;;20.38;100.00
6851;BME280;3464;42.728;23.296;2022-07-29T03:09:56;95381.47;;;20.23;100.00
6851;BME280;3464;42.728;23.296;2022-07-29T03:12:46;95388.45;;;20.18;100.00
6851;BME280;3464;42.728;23.296;2022-07-29T03:15:36;95378.80;;;20.27;100.00
6851;BME280;3464;42.728;23.296;2022-07-29T03:18:25;95387.74;;;20.28;100.00
6851;BME280;3464;42.728;23.296;2022-07-29T03:21:14;95389.81;;;20.44;100.00
6851;BME280;3464;42.728;23.296;2022-07-29T03:24:03;95385.95;;;20.60;100.00
6851;BME280;3464;42.728;23.296;2022-07-29T03:26:54;95386.03;;;20.57;100.00
6851;BME280;3464;42.728;23.296;2022-07-29T03:29:43;95382.03;;;20.64;100.00
6851;BME280;3464;42.728;23.296;2022-07-29T03:32:33;95383.87;;;20.74;100.00
6851;BME280;3464;42.728;23.296;2022-07-29T03:35:22;95387.55;;;20.94;100.00
6851;BME280;3464;42.728;23.296;2022-07-29T03:38:12;95386.80;;;20.76;100.00
6851;BME280;3464;42.728;23.296;2022-07-29T03:41:05;95371.71;;;20.52;100.00
6851;BME280;3464;42.728;23.296;2022-07-29T03:43:52;95387.70;;;20.74;100.00
6851;BME280;3464;42.728;23.296;2022-07-29T03:46:42;95394.20;;;21.01;100.00
6851;BME280;3464;42.728;23.296;2022-07-29T03:49:32;95386.99;;;21.27;100.00
6851;BME280;3464;42.728;23.296;2022-07-29T03:52:21;95390.84;;;21.67;100.00
6851;BME280;3464;42.728;23.296;2022-07-29T03:55:11;95392.30;;;21.75;100.00
6851;BME280;3464;42.728;23.296;2022-07-29T03:58:01;95393.58;;;22.50;100.00
6851;BME280;3464;42.728;23.296;2022-07-29T04:00:50;95394.61;;;22.80;100.00
6851;BME280;3464;42.728;23.296;2022-07-29T04:03:38;95400.76;;;23.86;100.00
6851;BME280;3464;42.728;23.296;2022-07-29T04:06:28;95393.81;;;22.31;100.00
6851;BME280;3464;42.728;23.296;2022-07-29T04:09:18;95389.84;;;22.71;100.00
6851;BME280;3464;42.728;23.296;2022-07-29T04:12:07;95394.39;;;23.85;100.00
6851;BME280;3464;42.728;23.296;2022-07-29T04:14:57;95378.83;;;25.43;100.00
6851;BME280;3464;42.728;23.296;2022-07-29T04:17:47;95376.76;;;25.50;100.00
6851;BME280;3464;42.728;23.296;2022-07-29T04:20:36;95373.80;;;26.69;94.50
6851;BME280;3464;42.728;23.296;2022-07-29T04:23:29;95379.93;;;28.29;78.76
6851;BME280;3464;42.728;23.296;2022-07-29T04:26:17;95374.41;;;29.54;74.76
6851;BME280;3464;42.728;23.296;2022-07-29T04:29:06;95376.52;;;31.40;64.03
6851;BME280;3464;42.728;23.296;2022-07-29T04:31:56;95384.53;;;27.64;73.30
6851;BME280;3464;42.728;23.296;2022-07-29T04:34:45;95382.48;;;27.93;76.29
6851;BME280;3464;42.728;23.296;2022-07-29T04:37:34;95391.23;;;28.13;74.79
6851;BME280;3464;42.728;23.296;2022-07-29T04:40:23;95394.66;;;30.41;65.60
6851;BME280;3464;42.728;23.296;2022-07-29T04:43:12;95391.10;;;29.09;68.58
6851;BME280;3464;42.728;23.296;2022-07-29T04:46:03;95395.51;;;28.79;68.36
6851;BME280;3464;42.728;23.296;2022-07-29T04:48:53;95402.97;;;25.04;91.85
6851;BME280;3464;42.728;23.296;2022-07-29T04:51:42;95406.03;;;25.31;90.76
6851;BME280;3464;42.728;23.296;2022-07-29T04:54:32;95411.48;;;25.07;98.47
6851;BME280;3464;42.728;23.296;2022-07-29T04:57:23;95407.26;;;26.96;87.39
6851;BME280;3464;42.728;23.296;2022-07-29T05:00:13;95412.83;;;29.48;75.35
6851;BME280;3464;42.728;23.296;2022-07-29T05:03:02;95403.89;;;28.76;71.13
6851;BME280;3464;42.728;23.296;2022-07-29T05:05:52;95399.34;;;27.93;72.79
6851;BME280;3464;42.728;23.296;2022-07-29T05:08:41;95401.62;;;26.64;82.50
6851;BME280;3464;42.728;23.296;2022-07-29T05:11:31;95403.70;;;28.86;74.85
6851;BME280;3464;42.728;23.296;2022-07-29T05:14:20;95399.31;;;30.99;62.86
6851;BME280;3464;42.728;23.296;2022-07-29T05:17:10;95406.08;;;26.61;79.06
6851;BME280;3464;42.728;23.296;2022-07-29T05:19:59;95411.20;;;29.46;67.79
6851;BME280;3464;42.728;23.296;2022-07-29T05:22:49;95418.66;;;28.68;70.25
6851;BME280;3464;42.728;23.296;2022-07-29T05:25:39;95415.66;;;27.08;79.36
6851;BME280;3464;42.728;23.296;2022-07-29T05:28:28;95410.36;;;26.36;85.31
6851;BME280;3464;42.728;23.296;2022-07-29T05:31:18;95407.63;;;28.13;76.85
6851;BME280;3464;42.728;23.296;2022-07-29T05:34:08;95414.77;;;27.00;80.64
6851;BME280;3464;42.728;23.296;2022-07-29T05:36:57;95406.86;;;26.37;87.55
6851;BME280;3464;42.728;23.296;2022-07-29T05:39:46;95415.56;;;26.85;84.89
6851;BME280;3464;42.728;23.296;2022-07-29T05:42:36;95414.09;;;28.06;78.83
6851;BME280;3464;42.728;23.296;2022-07-29T05:45:25;95426.73;;;26.61;84.98
6851;BME280;3464;42.728;23.296;2022-07-29T05:48:15;95418.08;;;27.73;79.25
6851;BME280;3464;42.728;23.296;2022-07-29T05:51:04;95424.50;;;29.48;72.14
6851;BME280;3464;42.728;23.296;2022-07-29T05:53:54;95421.08;;;30.15;68.14
6851;BME280;3464;42.728;23.296;2022-07-29T05:56:43;95423.16;;;31.54;60.58
6851;BME280;3464;42.728;23.296;2022-07-29T05:59:36;95416.23;;;31.85;59.75
6851;BME280;3464;42.728;23.296;2022-07-29T06:02:24;95420.94;;;32.50;56.74
6851;BME280;3464;42.728;23.296;2022-07-29T06:05:13;95421.00;;;31.12;57.05
6851;BME280;3464;42.728;23.296;2022-07-29T06:08:03;95423.19;;;31.18;59.64
6851;BME280;3464;42.728;23.296;2022-07-29T06:10:53;95425.64;;;33.52;48.17
6851;BME280;3464;42.728;23.296;2022-07-29T06:13:43;95421.94;;;34.40;45.09
6851;BME280;3464;42.728;23.296;2022-07-29T06:16:32;95426.23;;;32.60;48.21
6851;BME280;3464;42.728;23.296;2022-07-29T06:19:22;95420.67;;;33.87;45.64
6851;BME280;3464;42.728;23.296;2022-07-29T06:22:10;95426.65;;;34.93;42.46
6851;BME280;3464;42.728;23.296;2022-07-29T06:25:00;95416.33;;;34.23;44.16
6851;BME280;3464;42.728;23.296;2022-07-29T06:27:49;95416.28;;;34.19;44.61
6851;BME280;3464;42.728;23.296;2022-07-29T06:30:39;95415.89;;;34.13;43.71
6851;BME280;3464;42.728;23.296;2022-07-29T06:33:28;95419.33;;;34.29;43.51
6851;BME280;3464;42.728;23.296;2022-07-29T06:36:18;95413.14;;;33.72;43.22
6851;BME280;3464;42.728;23.296;2022-07-29T06:39:07;95411.23;;;34.74;41.99
6851;BME280;3464;42.728;23.296;2022-07-29T06:41:57;95408.02;;;34.81;42.13
6851;BME280;3464;42.728;23.296;2022-07-29T06:44:46;95407.88;;;36.02;39.63
6851;BME280;3464;42.728;23.296;2022-07-29T06:47:36;95405.86;;;35.86;38.55
6851;BME280;3464;42.728;23.296;2022-07-29T06:50:25;95398.86;;;37.55;36.71
6851;BME280;3464;42.728;23.296;2022-07-29T06:53:15;95404.81;;;35.03;41.40
6851;BME280;3464;42.728;23.296;2022-07-29T06:56:06;95401.88;;;36.86;37.73
6851;BME280;3464;42.728;23.296;2022-07-29T06:58:55;95405.48;;;38.57;34.62
6851;BME280;3464;42.728;23.296;2022-07-29T07:01:45;95395.93;;;38.94;34.15
6851;BME280;3464;42.728;23.296;2022-07-29T07:04:34;95396.83;;;38.38;34.31
6851;BME280;3464;42.728;23.296;2022-07-29T07:07:24;95393.75;;;37.16;36.03
6851;BME280;3464;42.728;23.296;2022-07-29T07:10:13;95386.73;;;38.51;34.03
6851;BME280;3464;42.728;23.296;2022-07-29T07:13:03;95391.63;;;36.93;35.42
6851;BME280;3464;42.728;23.296;2022-07-29T07:15:52;95382.03;;;39.05;33.13
6851;BME280;3464;42.728;23.296;2022-07-29T07:18:41;95393.43;;;38.19;32.78
6851;BME280;3464;42.728;23.296;2022-07-29T07:21:32;95392.66;;;36.78;34.84
6851;BME280;3464;42.728;23.296;2022-07-29T07:24:22;95396.02;;;34.63;38.07
6851;BME280;3464;42.728;23.296;2022-07-29T07:27:12;95387.59;;;37.53;34.17
6851;BME280;3464;42.728;23.296;2022-07-29T07:30:03;95386.03;;;38.45;32.76
6851;BME280;3464;42.728;23.296;2022-07-29T07:32:51;95388.47;;;37.58;33.17
6851;BME280;3464;42.728;23.296;2022-07-29T07:35:41;95379.98;;;37.05;34.88
6851;BME280;3464;42.728;23.296;2022-07-29T07:38:32;95387.83;;;33.94;39.40
6851;BME280;3464;42.728;23.296;2022-07-29T07:41:22;95379.06;;;34.48;37.68
6851;BME280;3464;42.728;23.296;2022-07-29T07:44:12;95387.09;;;35.61;36.05
6851;BME280;3464;42.728;23.296;2022-07-29T07:47:02;95397.83;;;34.47;37.43
6851;BME280;3464;42.728;23.296;2022-07-29T07:49:52;95386.07;;;35.03;36.98
6851;BME280;3464;42.728;23.296;2022-07-29T07:52:47;95388.05;;;35.80;36.96
6851;BME280;3464;42.728;23.296;2022-07-29T07:55:39;95383.21;;;35.31;38.38
6851;BME280;3464;42.728;23.296;2022-07-29T07:58:28;95385.92;;;36.70;35.00
6851;BME280;3464;42.728;23.296;2022-07-29T08:01:17;95384.56;;;35.99;36.29
6851;BME280;3464;42.728;23.296;2022-07-29T08:04:08;95376.33;;;37.25;34.94
6851;BME280;3464;42.728;23.296;2022-07-29T08:06:57;95377.00;;;36.12;35.50
6851;BME280;3464;42.728;23.296;2022-07-29T08:09:46;95367.39;;;37.72;33.75
6851;BME280;3464;42.728;23.296;2022-07-29T08:12:36;95388.11;;;34.79;37.38
6851;BME280;3464;42.728;23.296;2022-07-29T08:15:26;95384.59;;;32.54;42.26
6851;BME280;3464;42.728;23.296;2022-07-29T08:18:16;95382.08;;;30.35;45.36
6851;BME280;3464;42.728;23.296;2022-07-29T08:21:07;95377.02;;;31.51;43.27
6851;BME280;3464;42.728;23.296;2022-07-29T08:23:56;95379.33;;;30.31;46.25
6851;BME280;3464;42.728;23.296;2022-07-29T08:26:51;95384.11;;;29.65;47.28
6851;BME280;3464;42.728;23.296;2022-07-29T08:29:40;95381.27;;;30.08;47.57
6851;BME280;3464;42.728;23.296;2022-07-29T08:32:30;95371.88;;;29.73;48.33
6851;BME280;3464;42.728;23.296;2022-07-29T08:35:19;95390.84;;;29.20;48.10
6851;BME280;3464;42.728;23.296;2022-07-29T08:38:09;95387.36;;;29.34;47.77
6851;BME280;3464;42.728;23.296;2022-07-29T08:41:00;95378.97;;;29.97;47.67
6851;BME280;3464;42.728;23.296;2022-07-29T08:43:48;95372.39;;;30.75;45.41
6851;BME280;3464;42.728;23.296;2022-07-29T08:46:38;95370.52;;;30.07;47.95
6851;BME280;3464;42.728;23.296;2022-07-29T08:49:27;95371.45;;;30.90;46.83
6851;BME280;3464;42.728;23.296;2022-07-29T08:52:18;95371.30;;;31.22;44.83
6851;BME280;3464;42.728;23.296;2022-07-29T08:55:08;95363.33;;;31.36;44.00
6851;BME280;3464;42.728;23.296;2022-07-29T08:57:57;95373.59;;;30.89;44.89
6851;BME280;3464;42.728;23.296;2022-07-29T09:00:50;95365.27;;;29.82;47.33
6851;BME280;3464;42.728;23.296;2022-07-29T09:03:38;95371.52;;;29.86;47.06
6851;BME280;3464;42.728;23.296;2022-07-29T09:06:29;95364.69;;;30.42;47.05
6851;BME280;3464;42.728;23.296;2022-07-29T09:09:18;95354.76;;;31.35;45.05
6851;BME280;3464;42.728;23.296;2022-07-29T09:12:07;95351.09;;;31.38;44.94
6851;BME280;3464;42.728;23.296;2022-07-29T09:14:56;95352.10;;;31.59;42.39
6851;BME280;3464;42.728;23.296;2022-07-29T09:17:50;95352.41;;;31.01;44.53
6851;BME280;3464;42.728;23.296;2022-07-29T09:20:39;95343.73;;;30.89;45.71
6851;BME280;3464;42.728;23.296;2022-07-29T09:23:34;95356.52;;;30.74;44.77
6851;BME280;3464;42.728;23.296;2022-07-29T09:26:27;95360.00;;;30.35;45.26
6851;BME280;3464;42.728;23.296;2022-07-29T09:29:16;95355.74;;;30.46;45.02
6851;BME280;3464;42.728;23.296;2022-07-29T09:32:06;95351.42;;;30.96;44.61
6851;BME280;3464;42.728;23.296;2022-07-29T09:35:13;95348.66;;;30.36;44.76
6851;BME280;3464;42.728;23.296;2022-07-29T09:41:04;95343.94;;;30.86;44.23
6851;BME280;3464;42.728;23.296;2022-07-29T09:44:08;95337.80;;;31.65;43.14
6851;BME280;3464;42.728;23.296;2022-07-29T09:47:02;95344.85;;;31.03;42.87
6851;BME280;3464;42.728;23.296;2022-07-29T09:49:57;95334.97;;;31.08;42.45
6851;BME280;3464;42.728;23.296;2022-07-29T09:52:52;95327.66;;;31.56;42.58
6851;BME280;3464;42.728;23.296;2022-07-29T09:55:47;95330.53;;;31.52;41.58
6851;BME280;3464;42.728;23.296;2022-07-29T09:58:36;95327.78;;;32.12;41.36
6851;BME280;3464;42.728;23.296;2022-07-29T10:01:28;95334.09;;;31.45;42.30
6851;BME280;3464;42.728;23.296;2022-07-29T10:04:17;95324.44;;;30.92;43.60
6851;BME280;3464;42.728;23.296;2022-07-29T10:07:07;95324.36;;;31.11;42.57
6851;BME280;3464;42.728;23.296;2022-07-29T10:10:04;95320.64;;;31.74;42.35
6851;BME280;3464;42.728;23.296;2022-07-29T10:12:58;95312.77;;;31.40;41.79
6851;BME280;3464;42.728;23.296;2022-07-29T10:15:47;95306.44;;;31.61;41.99
6851;BME280;3464;42.728;23.296;2022-07-29T10:18:39;95302.66;;;31.77;42.04
6851;BME280;3464;42.728;23.296;2022-07-29T10:21:28;95296.59;;;31.30;43.02
6851;BME280;3464;42.728;23.296;2022-07-29T10:24:17;95303.12;;;32.28;41.13
6851;BME280;3464;42.728;23.296;2022-07-29T10:27:07;95304.63;;;31.68;41.47
6851;BME280;3464;42.728;23.296;2022-07-29T10:29:57;95301.08;;;32.10;40.38
6851;BME280;3464;42.728;23.296;2022-07-29T10:33:10;95297.75;;;32.30;40.48
6851;BME280;3464;42.728;23.296;2022-07-29T10:36:04;95289.41;;;30.91;41.73
6851;BME280;3464;42.728;23.296;2022-07-29T10:39:05;95283.11;;;31.06;41.75
6851;BME280;3464;42.728;23.296;2022-07-29T10:41:59;95294.11;;;31.46;40.99
6851;BME280;3464;42.728;23.296;2022-07-29T10:44:46;95269.12;;;31.79;40.18
6851;BME280;3464;42.728;23.296;2022-07-29T10:47:35;95278.68;;;31.55;41.51
6851;BME280;3464;42.728;23.296;2022-07-29T10:50:25;95281.06;;;31.76;39.91
6851;BME280;3464;42.728;23.296;2022-07-29T10:53:15;95274.47;;;31.42;40.36
6851;BME280;3464;42.728;23.296;2022-07-29T10:56:05;95266.30;;;31.47;39.57
6851;BME280;3464;42.728;23.296;2022-07-29T11:01:51;95256.77;;;31.11;40.76
6851;BME280;3464;42.728;23.296;2022-07-29T11:05:02;95252.87;;;31.52;40.28
6851;BME280;3464;42.728;23.296;2022-07-29T11:11:30;95246.73;;;31.30;40.25
6851;BME280;3464;42.728;23.296;2022-07-29T11:13:49;95249.34;;;31.59;39.31
6851;BME280;3464;42.728;23.296;2022-07-29T11:19:33;95243.73;;;32.16;40.36
6851;BME280;3464;42.728;23.296;2022-07-29T11:22:32;95243.77;;;31.75;39.40
6851;BME280;3464;42.728;23.296;2022-07-29T11:25:21;95235.02;;;32.33;39.84
6851;BME280;3464;42.728;23.296;2022-07-29T11:28:17;95231.54;;;32.83;38.41
6851;BME280;3464;42.728;23.296;2022-07-29T11:31:06;95234.42;;;32.24;38.81
6851;BME280;3464;42.728;23.296;2022-07-29T11:33:56;95235.58;;;31.75;39.62
6851;BME280;3464;42.728;23.296;2022-07-29T11:39:47;95233.86;;;31.86;41.05
6851;BME280;3464;42.728;23.296;2022-07-29T11:42:51;95234.64;;;32.38;39.95
6851;BME280;3464;42.728;23.296;2022-07-29T11:45:45;95223.36;;;32.15;40.14
6851;BME280;3464;42.728;23.296;2022-07-29T11:48:33;95231.86;;;32.46;39.70
6851;BME280;3464;42.728;23.296;2022-07-29T11:51:23;95224.89;;;32.23;39.71
6851;BME280;3464;42.728;23.296;2022-07-29T11:54:13;95225.03;;;32.27;39.36
6851;BME280;3464;42.728;23.296;2022-07-29T11:57:02;95223.17;;;32.35;39.21
6851;BME280;3464;42.728;23.296;2022-07-29T11:59:52;95213.66;;;32.73;39.35
6851;BME280;3464;42.728;23.296;2022-07-29T12:02:46;95212.89;;;32.93;38.86
6851;BME280;3464;42.728;23.296;2022-07-29T12:05:41;95226.65;;;32.46;38.87
6851;BME280;3464;42.728;23.296;2022-07-29T12:08:30;95219.11;;;32.20;39.23
6851;BME280;3464;42.728;23.296;2022-07-29T12:11:22;95224.28;;;32.37;38.52
6851;BME280;3464;42.728;23.296;2022-07-29T12:17:07;95207.81;;;32.37;38.88
6851;BME280;3464;42.728;23.296;2022-07-29T12:19:56;95213.30;;;32.11;39.59
6851;BME280;3464;42.728;23.296;2022-07-29T12:22:47;95206.84;;;33.09;38.72
6851;BME280;3464;42.728;23.296;2022-07-29T12:25:36;95217.04;;;33.38;37.28
6851;BME280;3464;42.728;23.296;2022-07-29T12:28:26;95212.66;;;32.74;38.20
6851;BME280;3464;42.728;23.296;2022-07-29T12:31:16;95206.38;;;32.71;38.05
6851;BME280;3464;42.728;23.296;2022-07-29T12:34:05;95195.38;;;33.21;37.44
6851;BME280;3464;42.728;23.296;2022-07-29T12:36:55;95197.14;;;33.48;36.59
6851;BME280;3464;42.728;23.296;2022-07-29T12:39:44;95189.41;;;32.39;37.96
6851;BME280;3464;42.728;23.296;2022-07-29T12:42:34;95187.56;;;32.46;37.96
6851;BME280;3464;42.728;23.296;2022-07-29T12:45:28;95194.70;;;32.76;38.01
6851;BME280;3464;42.728;23.296;2022-07-29T12:48:18;95184.64;;;32.72;37.37
6851;BME280;3464;42.728;23.296;2022-07-29T12:51:07;95180.28;;;32.88;37.17
6851;BME280;3464;42.728;23.296;2022-07-29T12:54:05;95184.37;;;32.80;37.29
6851;BME280;3464;42.728;23.296;2022-07-29T12:56:58;95176.37;;;32.55;37.17
6851;BME280;3464;42.728;23.296;2022-07-29T12:59:41;95175.00;;;32.56;37.36
6851;BME280;3464;42.728;23.296;2022-07-29T13:02:30;95164.37;;;33.02;36.51
6851;BME280;3464;42.728;23.296;2022-07-29T13:05:19;95154.30;;;33.13;36.14
6851;BME280;3464;42.728;23.296;2022-07-29T13:08:15;95160.45;;;32.70;36.76
6851;BME280;3464;42.728;23.296;2022-07-29T13:11:04;95163.80;;;32.93;36.75
6851;BME280;3464;42.728;23.296;2022-07-29T13:13:58;95154.88;;;33.06;36.82
6851;BME280;3464;42.728;23.296;2022-07-29T13:17:00;95158.83;;;32.73;36.62
6851;BME280;3464;42.728;23.296;2022-07-29T13:19:49;95153.13;;;32.96;36.92
6851;BME280;3464;42.728;23.296;2022-07-29T13:22:38;95151.44;;;33.16;35.91
6851;BME280;3464;42.728;23.296;2022-07-29T13:25:32;95147.02;;;33.12;36.35
6851;BME280;3464;42.728;23.296;2022-07-29T13:28:22;95148.20;;;32.98;36.88
6851;BME280;3464;42.728;23.296;2022-07-29T13:31:11;95151.67;;;33.29;36.07
6851;BME280;3464;42.728;23.296;2022-07-29T13:34:01;95139.95;;;33.96;35.58
6851;BME280;3464;42.728;23.296;2022-07-29T13:36:50;95136.17;;;33.53;35.72
6851;BME280;3464;42.728;23.296;2022-07-29T13:39:40;95125.80;;;33.78;34.68
6851;BME280;3464;42.728;23.296;2022-07-29T13:42:31;95123.72;;;33.51;35.33
6851;BME280;3464;42.728;23.296;2022-07-29T13:45:20;95141.25;;;32.71;36.48
6851;BME280;3464;42.728;23.296;2022-07-29T13:48:09;95138.21;;;32.87;36.66
6851;BME280;3464;42.728;23.296;2022-07-29T13:50:59;95128.73;;;32.80;36.41
6851;BME280;3464;42.728;23.296;2022-07-29T13:53:48;95129.24;;;33.32;36.51
6851;BME280;3464;42.728;23.296;2022-07-29T13:56:38;95126.04;;;33.34;36.65
6851;BME280;3464;42.728;23.296;2022-07-29T13:59:27;95109.66;;;33.27;36.33
6851;BME280;3464;42.728;23.296;2022-07-29T14:02:16;95125.15;;;33.40;36.48
6851;BME280;3464;42.728;23.296;2022-07-29T14:05:06;95129.51;;;33.76;36.51
6851;BME280;3464;42.728;23.296;2022-07-29T14:07:55;95125.73;;;33.89;35.83
6851;BME280;3464;42.728;23.296;2022-07-29T14:10:46;95136.88;;;33.14;36.81
6851;BME280;3464;42.728;23.296;2022-07-29T14:13:36;95136.60;;;33.48;36.53
6851;BME280;3464;42.728;23.296;2022-07-29T14:16:26;95142.27;;;33.17;36.46
6851;BME280;3464;42.728;23.296;2022-07-29T14:19:15;95135.03;;;33.15;36.67
6851;BME280;3464;42.728;23.296;2022-07-29T14:22:05;95138.30;;;32.70;36.79
6851;BME280;3464;42.728;23.296;2022-07-29T14:24:54;95135.02;;;32.89;36.36
6851;BME280;3464;42.728;23.296;2022-07-29T14:27:43;95134.17;;;32.67;36.88
6851;BME280;3464;42.728;23.296;2022-07-29T14:30:33;95133.83;;;33.29;36.55
6851;BME280;3464;42.728;23.296;2022-07-29T14:33:22;95128.72;;;33.39;36.52
6851;BME280;3464;42.728;23.296;2022-07-29T14:36:12;95127.06;;;32.79;37.13
6851;BME280;3464;42.728;23.296;2022-07-29T14:39:01;95128.75;;;33.12;37.08
6851;BME280;3464;42.728;23.296;2022-07-29T14:41:51;95126.05;;;33.08;37.06
6851;BME280;3464;42.728;23.296;2022-07-29T14:44:40;95127.34;;;33.39;36.98
6851;BME280;3464;42.728;23.296;2022-07-29T14:47:31;95124.70;;;33.81;35.82
6851;BME280;3464;42.728;23.296;2022-07-29T14:50:21;95124.58;;;33.82;35.49
6851;BME280;3464;42.728;23.296;2022-07-29T14:53:10;95124.84;;;33.69;36.07
6851;BME280;3464;42.728;23.296;2022-07-29T14:56:00;95117.91;;;34.19;33.99
6851;BME280;3464;42.728;23.296;2022-07-29T14:58:50;95117.73;;;33.86;36.05
6851;BME280;3464;42.728;23.296;2022-07-29T15:01:40;95120.00;;;33.90;35.83
6851;BME280;3464;42.728;23.296;2022-07-29T15:04:30;95121.11;;;34.32;35.35
6851;BME280;3464;42.728;23.296;2022-07-29T15:07:20;95118.13;;;33.86;35.30
6851;BME280;3464;42.728;23.296;2022-07-29T15:10:09;95111.61;;;33.96;35.58
6851;BME280;3464;42.728;23.296;2022-07-29T15:12:59;95115.17;;;33.85;35.49
6851;BME280;3464;42.728;23.296;2022-07-29T15:15:48;95123.09;;;33.38;35.72
6851;BME280;3464;42.728;23.296;2022-07-29T15:18:38;95126.25;;;33.00;36.35
6851;BME280;3464;42.728;23.296;2022-07-29T15:21:27;95110.63;;;33.21;36.30
6851;BME280;3464;42.728;23.296;2022-07-29T15:24:16;95119.80;;;32.94;36.84
6851;BME280;3464;42.728;23.296;2022-07-29T15:27:06;95111.47;;;32.95;36.42
6851;BME280;3464;42.728;23.296;2022-07-29T15:29:56;95110.83;;;32.87;36.38